Terminal Aerodrome Forecast
Issued by NWS Glasgow, MT

Home | Current Version | Previous Version | Text Only | Print | Product List | Glossary On
Versions: 1 2 3 4 5 6 7 8 9 10 11 12 13 14
000
FTUS45 KGGW 162320
TAFGGW
TAF
KGGW 162320Z 1700/1724 26007KT P6SM SKC
     FM170300 22006KT P6SM FEW180
     FM170400 22006KT P6SM FEW250 WS020/28035KT
     FM171100 23007KT P6SM SKC
     FM171800 24012KT P6SM FEW250=

USA.gov is the U.S. government's official web portal to all federal, state and local government web resources and services.